sensor_id;sensor_type;location;lat;lon;timestamp;P1;durP1;ratioP1;P2;durP2;ratioP2
45420;SDS011;55462;47.042;8.292;2023-06-22T00:00:38;9.30;;;6.20;;
45420;SDS011;55462;47.042;8.292;2023-06-22T00:03:06;10.48;;;6.15;;
45420;SDS011;55462;47.042;8.292;2023-06-22T00:05:35;9.65;;;5.50;;
45420;SDS011;55462;47.042;8.292;2023-06-22T00:08:23;9.70;;;5.55;;
45420;SDS011;55462;47.042;8.292;2023-06-22T00:10:48;6.57;;;5.88;;
45420;SDS011;55462;47.042;8.292;2023-06-22T00:13:13;7.88;;;5.80;;
45420;SDS011;55462;47.042;8.292;2023-06-22T00:15:40;10.30;;;5.50;;
45420;SDS011;55462;47.042;8.292;2023-06-22T00:18:09;6.22;;;5.35;;
45420;SDS011;55462;47.042;8.292;2023-06-22T00:20:35;6.78;;;5.20;;
45420;SDS011;55462;47.042;8.292;2023-06-22T00:23:02;8.82;;;5.63;;
45420;SDS011;55462;47.042;8.292;2023-06-22T00:25:33;7.75;;;6.05;;
45420;SDS011;55462;47.042;8.292;2023-06-22T00:27:58;10.50;;;5.32;;
45420;SDS011;55462;47.042;8.292;2023-06-22T00:30:24;8.73;;;6.15;;
45420;SDS011;55462;47.042;8.292;2023-06-22T00:32:49;9.15;;;5.70;;
45420;SDS011;55462;47.042;8.292;2023-06-22T00:35:14;10.32;;;6.22;;
45420;SDS011;55462;47.042;8.292;2023-06-22T00:37:40;6.38;;;4.90;;
45420;SDS011;55462;47.042;8.292;2023-06-22T00:40:08;12.13;;;5.97;;
45420;SDS011;55462;47.042;8.292;2023-06-22T00:42:36;5.40;;;4.80;;
45420;SDS011;55462;47.042;8.292;2023-06-22T00:45:02;12.05;;;5.93;;
45420;SDS011;55462;47.042;8.292;2023-06-22T00:47:27;11.43;;;5.43;;
45420;SDS011;55462;47.042;8.292;2023-06-22T00:49:52;9.05;;;5.30;;
45420;SDS011;55462;47.042;8.292;2023-06-22T00:52:19;6.45;;;5.85;;
45420;SDS011;55462;47.042;8.292;2023-06-22T00:54:46;11.00;;;6.00;;
45420;SDS011;55462;47.042;8.292;2023-06-22T00:57:15;8.10;;;6.03;;
45420;SDS011;55462;47.042;8.292;2023-06-22T00:59:42;6.50;;;5.60;;
45420;SDS011;55462;47.042;8.292;2023-06-22T01:02:11;7.07;;;5.80;;
45420;SDS011;55462;47.042;8.292;2023-06-22T01:04:37;10.98;;;6.40;;
45420;SDS011;55462;47.042;8.292;2023-06-22T01:07:10;8.70;;;5.95;;
45420;SDS011;55462;47.042;8.292;2023-06-22T01:12:26;7.53;;;6.60;;
45420;SDS011;55462;47.042;8.292;2023-06-22T01:15:02;10.57;;;6.40;;
45420;SDS011;55462;47.042;8.292;2023-06-22T01:17:31;9.32;;;6.47;;
45420;SDS011;55462;47.042;8.292;2023-06-22T01:19:57;7.82;;;6.30;;
45420;SDS011;55462;47.042;8.292;2023-06-22T01:22:28;10.10;;;6.20;;
45420;SDS011;55462;47.042;8.292;2023-06-22T01:25:12;10.35;;;5.93;;
45420;SDS011;55462;47.042;8.292;2023-06-22T01:30:43;6.50;;;5.60;;
45420;SDS011;55462;47.042;8.292;2023-06-22T01:33:11;9.07;;;6.60;;
45420;SDS011;55462;47.042;8.292;2023-06-22T01:35:37;8.85;;;6.72;;
45420;SDS011;55462;47.042;8.292;2023-06-22T01:38:04;7.15;;;5.82;;
45420;SDS011;55462;47.042;8.292;2023-06-22T01:40:30;7.32;;;6.28;;
45420;SDS011;55462;47.042;8.292;2023-06-22T01:42:57;11.80;;;6.90;;
45420;SDS011;55462;47.042;8.292;2023-06-22T01:45:22;8.65;;;6.72;;
45420;SDS011;55462;47.042;8.292;2023-06-22T01:47:48;13.05;;;6.78;;
45420;SDS011;55462;47.042;8.292;2023-06-22T01:50:13;11.52;;;7.55;;
45420;SDS011;55462;47.042;8.292;2023-06-22T01:52:39;12.38;;;8.30;;
45420;SDS011;55462;47.042;8.292;2023-06-22T01:55:04;9.60;;;8.23;;
45420;SDS011;55462;47.042;8.292;2023-06-22T01:57:31;11.35;;;8.57;;
45420;SDS011;55462;47.042;8.292;2023-06-22T02:02:31;14.40;;;8.85;;
45420;SDS011;55462;47.042;8.292;2023-06-22T02:05:02;12.60;;;8.88;;
45420;SDS011;55462;47.042;8.292;2023-06-22T02:07:31;12.05;;;8.50;;
45420;SDS011;55462;47.042;8.292;2023-06-22T02:09:59;12.93;;;9.07;;
45420;SDS011;55462;47.042;8.292;2023-06-22T02:12:25;11.57;;;8.45;;
45420;SDS011;55462;47.042;8.292;2023-06-22T02:14:52;11.27;;;8.75;;
45420;SDS011;55462;47.042;8.292;2023-06-22T02:17:18;10.25;;;7.32;;
45420;SDS011;55462;47.042;8.292;2023-06-22T02:19:44;10.90;;;8.13;;
45420;SDS011;55462;47.042;8.292;2023-06-22T02:22:09;9.63;;;8.63;;
45420;SDS011;55462;47.042;8.292;2023-06-22T02:24:34;12.13;;;8.32;;
45420;SDS011;55462;47.042;8.292;2023-06-22T02:27:00;11.45;;;8.30;;
45420;SDS011;55462;47.042;8.292;2023-06-22T02:29:26;9.00;;;7.38;;
45420;SDS011;55462;47.042;8.292;2023-06-22T02:31:54;12.60;;;7.90;;
45420;SDS011;55462;47.042;8.292;2023-06-22T02:34:20;9.80;;;8.20;;
45420;SDS011;55462;47.042;8.292;2023-06-22T02:36:46;14.93;;;9.05;;
45420;SDS011;55462;47.042;8.292;2023-06-22T02:39:19;11.77;;;9.00;;
45420;SDS011;55462;47.042;8.292;2023-06-22T02:41:53;10.77;;;8.77;;
45420;SDS011;55462;47.042;8.292;2023-06-22T02:44:19;13.77;;;9.55;;
45420;SDS011;55462;47.042;8.292;2023-06-22T02:46:45;11.57;;;9.48;;
45420;SDS011;55462;47.042;8.292;2023-06-22T02:49:11;11.32;;;9.10;;
45420;SDS011;55462;47.042;8.292;2023-06-22T02:51:38;11.23;;;9.95;;
45420;SDS011;55462;47.042;8.292;2023-06-22T02:54:04;12.05;;;8.70;;
45420;SDS011;55462;47.042;8.292;2023-06-22T02:56:30;12.57;;;8.93;;
45420;SDS011;55462;47.042;8.292;2023-06-22T02:58:55;15.02;;;8.77;;
45420;SDS011;55462;47.042;8.292;2023-06-22T03:01:26;11.05;;;8.93;;
45420;SDS011;55462;47.042;8.292;2023-06-22T03:03:52;13.45;;;9.15;;
45420;SDS011;55462;47.042;8.292;2023-06-22T03:06:18;11.05;;;8.48;;
45420;SDS011;55462;47.042;8.292;2023-06-22T03:08:49;11.27;;;9.57;;
45420;SDS011;55462;47.042;8.292;2023-06-22T03:11:15;9.50;;;8.48;;
45420;SDS011;55462;47.042;8.292;2023-06-22T03:13:40;13.43;;;8.82;;
45420;SDS011;55462;47.042;8.292;2023-06-22T03:16:06;12.27;;;9.30;;
45420;SDS011;55462;47.042;8.292;2023-06-22T03:18:31;15.77;;;9.55;;
45420;SDS011;55462;47.042;8.292;2023-06-22T03:20:56;12.68;;;9.05;;
45420;SDS011;55462;47.042;8.292;2023-06-22T03:23:21;10.98;;;9.10;;
45420;SDS011;55462;47.042;8.292;2023-06-22T03:25:47;11.63;;;8.50;;
45420;SDS011;55462;47.042;8.292;2023-06-22T03:28:12;10.23;;;8.70;;
45420;SDS011;55462;47.042;8.292;2023-06-22T03:30:37;11.27;;;7.50;;
45420;SDS011;55462;47.042;8.292;2023-06-22T03:33:03;13.30;;;9.10;;
45420;SDS011;55462;47.042;8.292;2023-06-22T03:35:28;12.70;;;9.27;;
45420;SDS011;55462;47.042;8.292;2023-06-22T03:37:53;9.52;;;8.20;;
45420;SDS011;55462;47.042;8.292;2023-06-22T03:40:19;11.82;;;8.93;;
45420;SDS011;55462;47.042;8.292;2023-06-22T03:42:44;11.18;;;8.75;;
45420;SDS011;55462;47.042;8.292;2023-06-22T03:45:10;13.02;;;8.75;;
45420;SDS011;55462;47.042;8.292;2023-06-22T03:47:36;11.75;;;10.13;;
45420;SDS011;55462;47.042;8.292;2023-06-22T03:50:01;13.15;;;8.98;;
45420;SDS011;55462;47.042;8.292;2023-06-22T03:52:28;12.40;;;9.23;;
45420;SDS011;55462;47.042;8.292;2023-06-22T03:54:54;10.38;;;9.23;;
45420;SDS011;55462;47.042;8.292;2023-06-22T03:57:19;14.82;;;9.45;;
45420;SDS011;55462;47.042;8.292;2023-06-22T03:59:44;12.52;;;10.23;;
45420;SDS011;55462;47.042;8.292;2023-06-22T04:02:10;9.80;;;8.80;;
45420;SDS011;55462;47.042;8.292;2023-06-22T04:04:35;13.25;;;9.10;;
45420;SDS011;55462;47.042;8.292;2023-06-22T04:07:00;12.82;;;9.63;;
45420;SDS011;55462;47.042;8.292;2023-06-22T04:09:26;13.50;;;9.25;;
45420;SDS011;55462;47.042;8.292;2023-06-22T04:11:51;12.75;;;8.70;;
45420;SDS011;55462;47.042;8.292;2023-06-22T04:14:17;9.10;;;7.97;;
45420;SDS011;55462;47.042;8.292;2023-06-22T04:16:42;9.18;;;8.20;;
45420;SDS011;55462;47.042;8.292;2023-06-22T04:19:07;15.20;;;8.45;;
45420;SDS011;55462;47.042;8.292;2023-06-22T04:21:38;12.40;;;8.25;;
45420;SDS011;55462;47.042;8.292;2023-06-22T04:24:03;16.92;;;8.77;;
45420;SDS011;55462;47.042;8.292;2023-06-22T04:26:29;11.93;;;8.88;;
45420;SDS011;55462;47.042;8.292;2023-06-22T04:28:54;10.60;;;7.43;;
45420;SDS011;55462;47.042;8.292;2023-06-22T04:31:20;11.85;;;8.07;;
45420;SDS011;55462;47.042;8.292;2023-06-22T04:33:46;12.77;;;7.32;;
45420;SDS011;55462;47.042;8.292;2023-06-22T04:36:11;11.88;;;8.18;;
45420;SDS011;55462;47.042;8.292;2023-06-22T04:38:39;10.38;;;8.02;;
45420;SDS011;55462;47.042;8.292;2023-06-22T04:41:05;12.68;;;7.95;;
45420;SDS011;55462;47.042;8.292;2023-06-22T04:43:31;11.98;;;8.32;;
45420;SDS011;55462;47.042;8.292;2023-06-22T04:45:57;15.65;;;7.93;;
45420;SDS011;55462;47.042;8.292;2023-06-22T04:48:28;13.73;;;9.20;;
45420;SDS011;55462;47.042;8.292;2023-06-22T04:50:58;15.82;;;9.68;;
45420;SDS011;55462;47.042;8.292;2023-06-22T04:53:28;16.35;;;9.63;;
45420;SDS011;55462;47.042;8.292;2023-06-22T04:55:54;12.85;;;8.68;;
45420;SDS011;55462;47.042;8.292;2023-06-22T04:58:20;9.82;;;7.95;;
45420;SDS011;55462;47.042;8.292;2023-06-22T05:00:46;12.80;;;8.43;;
45420;SDS011;55462;47.042;8.292;2023-06-22T05:03:12;14.65;;;9.50;;
45420;SDS011;55462;47.042;8.292;2023-06-22T05:05:37;16.13;;;9.70;;
45420;SDS011;55462;47.042;8.292;2023-06-22T05:08:03;13.38;;;8.80;;
45420;SDS011;55462;47.042;8.292;2023-06-22T05:10:31;9.25;;;7.68;;
45420;SDS011;55462;47.042;8.292;2023-06-22T05:12:57;10.30;;;9.27;;
45420;SDS011;55462;47.042;8.292;2023-06-22T05:15:22;11.52;;;8.73;;
45420;SDS011;55462;47.042;8.292;2023-06-22T05:17:51;11.98;;;8.55;;
45420;SDS011;55462;47.042;8.292;2023-06-22T05:20:17;13.48;;;8.60;;
45420;SDS011;55462;47.042;8.292;2023-06-22T05:22:43;12.25;;;8.60;;
45420;SDS011;55462;47.042;8.292;2023-06-22T05:25:08;12.07;;;8.88;;
45420;SDS011;55462;47.042;8.292;2023-06-22T05:27:35;10.32;;;8.70;;
45420;SDS011;55462;47.042;8.292;2023-06-22T05:30:04;9.60;;;8.60;;
45420;SDS011;55462;47.042;8.292;2023-06-22T05:32:32;11.85;;;8.93;;
45420;SDS011;55462;47.042;8.292;2023-06-22T05:34:58;14.13;;;9.38;;
45420;SDS011;55462;47.042;8.292;2023-06-22T05:37:24;9.82;;;8.95;;
45420;SDS011;55462;47.042;8.292;2023-06-22T05:39:49;14.80;;;10.30;;
45420;SDS011;55462;47.042;8.292;2023-06-22T05:42:14;11.38;;;9.13;;
45420;SDS011;55462;47.042;8.292;2023-06-22T05:44:39;12.75;;;8.65;;
45420;SDS011;55462;47.042;8.292;2023-06-22T05:47:05;15.15;;;9.32;;
45420;SDS011;55462;47.042;8.292;2023-06-22T05:49:31;16.15;;;9.40;;
45420;SDS011;55462;47.042;8.292;2023-06-22T05:51:57;13.05;;;9.82;;
45420;SDS011;55462;47.042;8.292;2023-06-22T05:54:23;12.77;;;9.60;;
45420;SDS011;55462;47.042;8.292;2023-06-22T05:56:49;13.38;;;9.23;;
45420;SDS011;55462;47.042;8.292;2023-06-22T05:59:14;10.43;;;8.43;;
45420;SDS011;55462;47.042;8.292;2023-06-22T06:01:39;14.65;;;9.75;;
45420;SDS011;55462;47.042;8.292;2023-06-22T06:04:05;12.77;;;8.70;;
45420;SDS011;55462;47.042;8.292;2023-06-22T06:06:33;12.15;;;9.02;;
45420;SDS011;55462;47.042;8.292;2023-06-22T06:09:02;15.05;;;9.63;;
45420;SDS011;55462;47.042;8.292;2023-06-22T06:11:28;14.93;;;8.73;;
45420;SDS011;55462;47.042;8.292;2023-06-22T06:13:53;9.80;;;8.77;;
45420;SDS011;55462;47.042;8.292;2023-06-22T06:16:19;12.32;;;10.23;;
45420;SDS011;55462;47.042;8.292;2023-06-22T06:18:44;14.60;;;9.82;;
45420;SDS011;55462;47.042;8.292;2023-06-22T06:21:09;12.05;;;8.23;;
45420;SDS011;55462;47.042;8.292;2023-06-22T06:23:34;12.05;;;9.30;;
45420;SDS011;55462;47.042;8.292;2023-06-22T06:26:00;15.77;;;9.65;;
45420;SDS011;55462;47.042;8.292;2023-06-22T06:28:26;13.45;;;9.40;;
45420;SDS011;55462;47.042;8.292;2023-06-22T06:30:51;15.80;;;10.60;;
45420;SDS011;55462;47.042;8.292;2023-06-22T06:33:17;14.50;;;10.93;;
45420;SDS011;55462;47.042;8.292;2023-06-22T06:35:42;15.50;;;10.73;;
45420;SDS011;55462;47.042;8.292;2023-06-22T06:38:07;16.60;;;10.20;;
45420;SDS011;55462;47.042;8.292;2023-06-22T06:40:32;13.00;;;9.60;;
45420;SDS011;55462;47.042;8.292;2023-06-22T06:42:58;13.63;;;9.65;;
45420;SDS011;55462;47.042;8.292;2023-06-22T06:45:23;10.77;;;9.43;;
45420;SDS011;55462;47.042;8.292;2023-06-22T06:47:49;15.77;;;9.68;;
45420;SDS011;55462;47.042;8.292;2023-06-22T06:50:15;15.55;;;9.45;;
45420;SDS011;55462;47.042;8.292;2023-06-22T06:52:41;15.25;;;9.50;;
45420;SDS011;55462;47.042;8.292;2023-06-22T06:55:06;14.35;;;9.65;;
45420;SDS011;55462;47.042;8.292;2023-06-22T06:57:34;15.20;;;9.68;;
45420;SDS011;55462;47.042;8.292;2023-06-22T07:00:02;16.55;;;9.75;;
45420;SDS011;55462;47.042;8.292;2023-06-22T07:02:32;10.88;;;9.02;;
45420;SDS011;55462;47.042;8.292;2023-06-22T07:04:57;11.23;;;9.02;;
45420;SDS011;55462;47.042;8.292;2023-06-22T07:07:22;14.93;;;9.25;;
45420;SDS011;55462;47.042;8.292;2023-06-22T07:09:47;12.85;;;8.50;;
45420;SDS011;55462;47.042;8.292;2023-06-22T07:12:13;12.18;;;8.50;;
45420;SDS011;55462;47.042;8.292;2023-06-22T07:14:38;14.43;;;8.98;;
45420;SDS011;55462;47.042;8.292;2023-06-22T07:17:04;11.77;;;9.45;;
45420;SDS011;55462;47.042;8.292;2023-06-22T07:19:29;18.02;;;8.98;;
45420;SDS011;55462;47.042;8.292;2023-06-22T07:21:55;11.63;;;8.82;;
45420;SDS011;55462;47.042;8.292;2023-06-22T07:24:20;12.90;;;8.82;;
45420;SDS011;55462;47.042;8.292;2023-06-22T07:26:49;14.65;;;7.68;;
45420;SDS011;55462;47.042;8.292;2023-06-22T07:29:16;10.93;;;7.70;;
45420;SDS011;55462;47.042;8.292;2023-06-22T07:31:42;13.10;;;8.02;;
45420;SDS011;55462;47.042;8.292;2023-06-22T07:34:07;13.13;;;7.28;;
45420;SDS011;55462;47.042;8.292;2023-06-22T07:36:32;13.98;;;7.57;;
45420;SDS011;55462;47.042;8.292;2023-06-22T07:38:58;18.05;;;8.38;;
45420;SDS011;55462;47.042;8.292;2023-06-22T07:41:23;15.90;;;9.57;;
45420;SDS011;55462;47.042;8.292;2023-06-22T07:43:48;11.65;;;7.63;;
45420;SDS011;55462;47.042;8.292;2023-06-22T07:46:14;10.35;;;8.13;;
45420;SDS011;55462;47.042;8.292;2023-06-22T07:48:39;14.45;;;7.88;;
45420;SDS011;55462;47.042;8.292;2023-06-22T07:51:06;10.48;;;7.75;;
45420;SDS011;55462;47.042;8.292;2023-06-22T07:53:32;15.25;;;7.95;;
45420;SDS011;55462;47.042;8.292;2023-06-22T07:55:57;12.73;;;7.78;;
45420;SDS011;55462;47.042;8.292;2023-06-22T07:58:22;18.20;;;9.25;;
45420;SDS011;55462;47.042;8.292;2023-06-22T08:00:48;10.65;;;8.88;;
45420;SDS011;55462;47.042;8.292;2023-06-22T08:03:14;14.23;;;8.80;;
45420;SDS011;55462;47.042;8.292;2023-06-22T08:05:39;12.27;;;7.78;;
45420;SDS011;55462;47.042;8.292;2023-06-22T08:08:05;14.77;;;8.52;;
45420;SDS011;55462;47.042;8.292;2023-06-22T08:10:30;12.15;;;9.38;;
45420;SDS011;55462;47.042;8.292;2023-06-22T08:12:55;13.57;;;9.85;;
45420;SDS011;55462;47.042;8.292;2023-06-22T08:15:21;14.30;;;9.10;;
45420;SDS011;55462;47.042;8.292;2023-06-22T08:17:47;13.70;;;8.52;;
45420;SDS011;55462;47.042;8.292;2023-06-22T08:20:12;12.23;;;8.93;;
45420;SDS011;55462;47.042;8.292;2023-06-22T08:22:38;10.88;;;9.02;;
45420;SDS011;55462;47.042;8.292;2023-06-22T08:25:04;12.80;;;8.38;;
45420;SDS011;55462;47.042;8.292;2023-06-22T08:27:30;12.38;;;8.50;;
45420;SDS011;55462;47.042;8.292;2023-06-22T08:29:59;9.45;;;8.45;;
45420;SDS011;55462;47.042;8.292;2023-06-22T08:32:25;15.10;;;8.82;;
45420;SDS011;55462;47.042;8.292;2023-06-22T08:34:52;13.57;;;8.95;;
45420;SDS011;55462;47.042;8.292;2023-06-22T08:37:19;14.80;;;8.70;;
45420;SDS011;55462;47.042;8.292;2023-06-22T08:39:44;13.48;;;8.60;;
45420;SDS011;55462;47.042;8.292;2023-06-22T08:42:09;12.85;;;8.85;;
45420;SDS011;55462;47.042;8.292;2023-06-22T08:44:35;11.27;;;8.18;;
45420;SDS011;55462;47.042;8.292;2023-06-22T08:47:00;13.73;;;8.15;;
45420;SDS011;55462;47.042;8.292;2023-06-22T08:49:25;15.27;;;8.07;;
45420;SDS011;55462;47.042;8.292;2023-06-22T08:51:51;11.88;;;7.47;;
45420;SDS011;55462;47.042;8.292;2023-06-22T08:54:18;10.60;;;7.13;;
45420;SDS011;55462;47.042;8.292;2023-06-22T08:56:43;13.88;;;7.70;;
45420;SDS011;55462;47.042;8.292;2023-06-22T08:59:09;16.10;;;7.90;;
45420;SDS011;55462;47.042;8.292;2023-06-22T09:01:34;9.25;;;7.22;;
45420;SDS011;55462;47.042;8.292;2023-06-22T09:03:59;12.95;;;7.82;;
45420;SDS011;55462;47.042;8.292;2023-06-22T09:06:25;12.60;;;7.97;;
45420;SDS011;55462;47.042;8.292;2023-06-22T09:08:50;14.57;;;8.57;;
45420;SDS011;55462;47.042;8.292;2023-06-22T09:11:16;13.20;;;7.95;;
45420;SDS011;55462;47.042;8.292;2023-06-22T09:13:41;12.07;;;7.70;;
45420;SDS011;55462;47.042;8.292;2023-06-22T09:16:07;15.57;;;8.80;;
45420;SDS011;55462;47.042;8.292;2023-06-22T09:18:33;12.95;;;7.45;;
45420;SDS011;55462;47.042;8.292;2023-06-22T09:20:59;12.73;;;7.38;;
45420;SDS011;55462;47.042;8.292;2023-06-22T09:23:24;16.25;;;8.07;;
45420;SDS011;55462;47.042;8.292;2023-06-22T09:25:49;13.27;;;8.70;;
45420;SDS011;55462;47.042;8.292;2023-06-22T09:28:15;11.15;;;8.45;;
45420;SDS011;55462;47.042;8.292;2023-06-22T09:30:42;15.93;;;8.32;;
45420;SDS011;55462;47.042;8.292;2023-06-22T09:33:08;12.88;;;7.80;;
45420;SDS011;55462;47.042;8.292;2023-06-22T09:35:33;13.05;;;7.88;;
45420;SDS011;55462;47.042;8.292;2023-06-22T09:37:59;13.77;;;8.00;;
45420;SDS011;55462;47.042;8.292;2023-06-22T09:40:24;13.35;;;7.88;;
45420;SDS011;55462;47.042;8.292;2023-06-22T09:42:49;16.10;;;8.48;;
45420;SDS011;55462;47.042;8.292;2023-06-22T09:45:15;14.18;;;8.60;;
45420;SDS011;55462;47.042;8.292;2023-06-22T09:47:40;14.52;;;8.85;;
45420;SDS011;55462;47.042;8.292;2023-06-22T09:50:06;14.77;;;8.50;;
45420;SDS011;55462;47.042;8.292;2023-06-22T09:52:32;15.75;;;8.00;;
45420;SDS011;55462;47.042;8.292;2023-06-22T09:54:57;12.48;;;8.15;;
45420;SDS011;55462;47.042;8.292;2023-06-22T09:57:22;15.30;;;7.93;;
45420;SDS011;55462;47.042;8.292;2023-06-22T09:59:48;14.35;;;7.47;;
45420;SDS011;55462;47.042;8.292;2023-06-22T10:02:13;9.55;;;7.43;;
45420;SDS011;55462;47.042;8.292;2023-06-22T10:04:38;11.07;;;8.18;;
45420;SDS011;55462;47.042;8.292;2023-06-22T10:07:05;12.25;;;7.68;;
45420;SDS011;55462;47.042;8.292;2023-06-22T10:09:30;11.45;;;7.70;;
45420;SDS011;55462;47.042;8.292;2023-06-22T10:11:55;13.95;;;8.02;;
45420;SDS011;55462;47.042;8.292;2023-06-22T10:14:21;14.73;;;7.55;;
45420;SDS011;55462;47.042;8.292;2023-06-22T10:16:47;10.52;;;7.45;;
45420;SDS011;55462;47.042;8.292;2023-06-22T10:19:13;17.15;;;6.82;;
45420;SDS011;55462;47.042;8.292;2023-06-22T10:21:38;10.23;;;7.25;;
45420;SDS011;55462;47.042;8.292;2023-06-22T10:24:03;15.95;;;8.05;;
45420;SDS011;55462;47.042;8.292;2023-06-22T10:26:34;11.23;;;7.40;;
45420;SDS011;55462;47.042;8.292;2023-06-22T10:29:00;14.63;;;6.65;;
45420;SDS011;55462;47.042;8.292;2023-06-22T10:31:26;12.55;;;7.07;;
45420;SDS011;55462;47.042;8.292;2023-06-22T10:33:52;12.27;;;7.28;;
45420;SDS011;55462;47.042;8.292;2023-06-22T10:36:18;11.55;;;6.88;;
45420;SDS011;55462;47.042;8.292;2023-06-22T10:38:44;12.80;;;7.00;;
45420;SDS011;55462;47.042;8.292;2023-06-22T10:41:09;11.45;;;6.97;;
45420;SDS011;55462;47.042;8.292;2023-06-22T10:43:34;13.18;;;6.70;;
45420;SDS011;55462;47.042;8.292;2023-06-22T10:46:00;12.45;;;7.32;;
45420;SDS011;55462;47.042;8.292;2023-06-22T10:48:25;11.27;;;7.43;;
45420;SDS011;55462;47.042;8.292;2023-06-22T10:50:51;12.02;;;7.57;;
45420;SDS011;55462;47.042;8.292;2023-06-22T10:53:18;13.43;;;8.02;;
45420;SDS011;55462;47.042;8.292;2023-06-22T10:55:43;16.00;;;8.43;;
45420;SDS011;55462;47.042;8.292;2023-06-22T10:58:08;11.77;;;7.60;;
45420;SDS011;55462;47.042;8.292;2023-06-22T11:00:34;13.38;;;6.95;;
45420;SDS011;55462;47.042;8.292;2023-06-22T11:02:59;10.95;;;7.63;;
45420;SDS011;55462;47.042;8.292;2023-06-22T11:05:24;11.05;;;7.07;;
45420;SDS011;55462;47.042;8.292;2023-06-22T11:07:50;11.80;;;7.53;;
45420;SDS011;55462;47.042;8.292;2023-06-22T11:10:15;13.70;;;9.38;;
45420;SDS011;55462;47.042;8.292;2023-06-22T11:12:40;13.13;;;7.68;;
45420;SDS011;55462;47.042;8.292;2023-06-22T11:15:07;11.50;;;7.63;;
45420;SDS011;55462;47.042;8.292;2023-06-22T11:17:33;10.07;;;6.75;;
45420;SDS011;55462;47.042;8.292;2023-06-22T11:19:58;10.57;;;8.65;;
45420;SDS011;55462;47.042;8.292;2023-06-22T11:22:25;18.98;;;8.70;;
45420;SDS011;55462;47.042;8.292;2023-06-22T11:24:50;17.27;;;8.10;;
45420;SDS011;55462;47.042;8.292;2023-06-22T11:27:15;12.02;;;8.57;;
45420;SDS011;55462;47.042;8.292;2023-06-22T11:29:41;13.40;;;7.85;;
45420;SDS011;55462;47.042;8.292;2023-06-22T11:32:06;16.13;;;8.73;;
45420;SDS011;55462;47.042;8.292;2023-06-22T11:34:32;14.07;;;7.93;;
45420;SDS011;55462;47.042;8.292;2023-06-22T11:36:57;17.65;;;8.80;;
45420;SDS011;55462;47.042;8.292;2023-06-22T11:39:23;13.68;;;7.85;;
45420;SDS011;55462;47.042;8.292;2023-06-22T11:41:48;16.02;;;8.55;;
45420;SDS011;55462;47.042;8.292;2023-06-22T11:44:13;14.55;;;8.43;;
45420;SDS011;55462;47.042;8.292;2023-06-22T11:46:39;14.93;;;8.02;;
45420;SDS011;55462;47.042;8.292;2023-06-22T11:49:04;13.18;;;8.43;;
45420;SDS011;55462;47.042;8.292;2023-06-22T11:51:29;13.52;;;8.05;;
45420;SDS011;55462;47.042;8.292;2023-06-22T11:53:56;20.25;;;8.20;;
45420;SDS011;55462;47.042;8.292;2023-06-22T11:56:22;13.32;;;7.20;;
45420;SDS011;55462;47.042;8.292;2023-06-22T11:58:47;18.52;;;8.65;;
45420;SDS011;55462;47.042;8.292;2023-06-22T12:01:12;16.70;;;8.63;;
45420;SDS011;55462;47.042;8.292;2023-06-22T12:03:39;17.88;;;9.00;;
45420;SDS011;55462;47.042;8.292;2023-06-22T12:06:05;20.50;;;9.43;;
45420;SDS011;55462;47.042;8.292;2023-06-22T12:08:30;10.93;;;8.43;;
45420;SDS011;55462;47.042;8.292;2023-06-22T12:10:55;15.05;;;8.77;;
45420;SDS011;55462;47.042;8.292;2023-06-22T12:13:21;17.15;;;8.82;;
45420;SDS011;55462;47.042;8.292;2023-06-22T12:15:46;17.08;;;8.18;;
45420;SDS011;55462;47.042;8.292;2023-06-22T12:18:12;15.18;;;7.53;;
45420;SDS011;55462;47.042;8.292;2023-06-22T12:20:39;14.25;;;7.57;;
45420;SDS011;55462;47.042;8.292;2023-06-22T12:23:05;13.48;;;8.23;;
45420;SDS011;55462;47.042;8.292;2023-06-22T12:25:30;15.77;;;8.45;;
45420;SDS011;55462;47.042;8.292;2023-06-22T12:27:55;21.75;;;8.85;;
45420;SDS011;55462;47.042;8.292;2023-06-22T12:30:21;13.98;;;8.27;;
45420;SDS011;55462;47.042;8.292;2023-06-22T12:32:46;10.80;;;8.43;;
45420;SDS011;55462;47.042;8.292;2023-06-22T12:35:11;14.93;;;7.45;;
45420;SDS011;55462;47.042;8.292;2023-06-22T12:37:40;11.45;;;7.53;;
45420;SDS011;55462;47.042;8.292;2023-06-22T12:40:06;11.68;;;7.55;;
45420;SDS011;55462;47.042;8.292;2023-06-22T12:42:32;13.68;;;7.63;;
45420;SDS011;55462;47.042;8.292;2023-06-22T12:44:57;13.05;;;7.25;;
45420;SDS011;55462;47.042;8.292;2023-06-22T12:47:22;12.93;;;7.68;;
45420;SDS011;55462;47.042;8.292;2023-06-22T12:49:48;14.98;;;7.75;;
45420;SDS011;55462;47.042;8.292;2023-06-22T12:52:13;17.35;;;8.38;;
45420;SDS011;55462;47.042;8.292;2023-06-22T12:54:38;12.95;;;8.30;;
45420;SDS011;55462;47.042;8.292;2023-06-22T12:57:04;13.98;;;8.50;;
45420;SDS011;55462;47.042;8.292;2023-06-22T12:59:29;18.13;;;8.07;;
45420;SDS011;55462;47.042;8.292;2023-06-22T13:01:54;11.65;;;8.07;;
45420;SDS011;55462;47.042;8.292;2023-06-22T13:04:20;17.85;;;7.57;;
45420;SDS011;55462;47.042;8.292;2023-06-22T13:06:46;13.10;;;7.43;;
45420;SDS011;55462;47.042;8.292;2023-06-22T13:09:13;16.90;;;7.30;;
45420;SDS011;55462;47.042;8.292;2023-06-22T13:11:39;10.77;;;7.20;;
45420;SDS011;55462;47.042;8.292;2023-06-22T13:14:04;14.32;;;6.82;;
45420;SDS011;55462;47.042;8.292;2023-06-22T13:16:29;10.45;;;6.13;;
45420;SDS011;55462;47.042;8.292;2023-06-22T13:18:55;14.55;;;5.65;;
45420;SDS011;55462;47.042;8.292;2023-06-22T13:21:20;14.32;;;6.68;;
45420;SDS011;55462;47.042;8.292;2023-06-22T13:23:45;17.42;;;6.40;;
45420;SDS011;55462;47.042;8.292;2023-06-22T13:26:11;12.30;;;5.63;;
45420;SDS011;55462;47.042;8.292;2023-06-22T13:28:36;9.10;;;4.97;;
45420;SDS011;55462;47.042;8.292;2023-06-22T13:31:01;13.68;;;4.15;;
45420;SDS011;55462;47.042;8.292;2023-06-22T13:33:27;10.55;;;3.72;;
45420;SDS011;55462;47.042;8.292;2023-06-22T13:35:52;12.70;;;3.83;;
45420;SDS011;55462;47.042;8.292;2023-06-22T13:38:17;15.13;;;5.07;;
45420;SDS011;55462;47.042;8.292;2023-06-22T13:40:43;8.65;;;4.15;;
45420;SDS011;55462;47.042;8.292;2023-06-22T13:43:08;13.02;;;4.30;;
45420;SDS011;55462;47.042;8.292;2023-06-22T13:45:34;16.25;;;4.60;;
45420;SDS011;55462;47.042;8.292;2023-06-22T13:47:59;12.98;;;5.00;;
45420;SDS011;55462;47.042;8.292;2023-06-22T13:50:24;20.48;;;5.25;;
45420;SDS011;55462;47.042;8.292;2023-06-22T13:52:50;13.55;;;4.75;;
45420;SDS011;55462;47.042;8.292;2023-06-22T13:55:15;11.30;;;4.68;;
45420;SDS011;55462;47.042;8.292;2023-06-22T13:57:41;10.45;;;4.57;;
45420;SDS011;55462;47.042;8.292;2023-06-22T14:00:08;8.40;;;4.55;;
45420;SDS011;55462;47.042;8.292;2023-06-22T14:02:33;12.32;;;4.65;;
45420;SDS011;55462;47.042;8.292;2023-06-22T14:04:59;7.80;;;4.22;;
45420;SDS011;55462;47.042;8.292;2023-06-22T14:07:24;9.77;;;4.32;;
45420;SDS011;55462;47.042;8.292;2023-06-22T14:09:50;9.55;;;5.03;;
45420;SDS011;55462;47.042;8.292;2023-06-22T14:12:15;11.05;;;4.28;;
45420;SDS011;55462;47.042;8.292;2023-06-22T14:14:42;11.02;;;5.00;;
45420;SDS011;55462;47.042;8.292;2023-06-22T14:17:08;11.43;;;4.97;;
45420;SDS011;55462;47.042;8.292;2023-06-22T14:19:33;10.05;;;4.80;;
45420;SDS011;55462;47.042;8.292;2023-06-22T14:21:58;10.13;;;4.78;;
45420;SDS011;55462;47.042;8.292;2023-06-22T14:24:24;10.00;;;4.57;;
45420;SDS011;55462;47.042;8.292;2023-06-22T14:26:49;9.75;;;4.78;;
45420;SDS011;55462;47.042;8.292;2023-06-22T14:29:14;6.70;;;4.20;;
45420;SDS011;55462;47.042;8.292;2023-06-22T14:31:40;17.08;;;5.05;;
45420;SDS011;55462;47.042;8.292;2023-06-22T14:34:05;11.35;;;4.82;;
45420;SDS011;55462;47.042;8.292;2023-06-22T14:36:31;10.10;;;5.20;;